DLH55X EDDF-LEBB
Flight info
| Callsign | DLH55X |
|---|---|
| Flight time | N/A |
| Altitude | 33000 |
| Route | ANEKI2L/18 ANEKI Y163 HERBI Y164 MOPAN DCT LUTIX DCT BENOT DCT NEMOS DCT NINTU DCT MEBAK DCT REPSI DCT LERGA DCT MINSO DCT NARAK/N0459F350 DCT AGN/N0424F270 DCT LATEK DCT PPN M601 CEGAM |
| Aircraft | A321/M-SDE3FGHIRWY/LB1 |
Departure
| Time | 2026-05-05 15:04 |
|---|---|
| Airport | Frankfurt Main Airport (EDDF) |
Arrival
| Time | N/A |
|---|---|
| Airport | Bilbao Airport (LEBB) |
| Time | Latitude | Longitude | Altitude | Speed | Heading |
|---|---|---|---|---|---|
| 2026-05-05 14:41 | 50.04480 | 8.56537 | 356 ft | 0 kts | 164° |
| 2026-05-05 14:42 | 50.04481 | 8.56537 | 356 ft | 0 kts | 164° |
| 2026-05-05 14:51 | 50.04483 | 8.56536 | 356 ft | 2 kts | 165° |
| 2026-05-05 14:51 | 50.04508 | 8.56526 | 363 ft | 4 kts | 161° |
| 2026-05-05 14:52 | 50.04528 | 8.56507 | 361 ft | 3 kts | 119° |
| 2026-05-05 14:52 | 50.04540 | 8.56477 | 362 ft | 4 kts | 132° |
| 2026-05-05 14:52 | 50.04560 | 8.56455 | 364 ft | 4 kts | 174° |
| 2026-05-05 14:52 | 50.04574 | 8.56456 | 359 ft | 0 kts | 204° |
| 2026-05-05 14:57 | 50.04573 | 8.56456 | 356 ft | 1 kts | 204° |
| 2026-05-05 14:57 | 50.04550 | 8.56440 | 359 ft | 3 kts | 203° |
| 2026-05-05 14:57 | 50.04536 | 8.56427 | 360 ft | 3 kts | 216° |
| 2026-05-05 14:57 | 50.04518 | 8.56388 | 359 ft | 7 kts | 243° |
| 2026-05-05 14:58 | 50.04490 | 8.56276 | 356 ft | 14 kts | 250° |
| 2026-05-05 14:58 | 50.04459 | 8.56144 | 357 ft | 12 kts | 250° |
| 2026-05-05 14:58 | 50.04432 | 8.56046 | 358 ft | 8 kts | 235° |
| 2026-05-05 14:58 | 50.04387 | 8.56032 | 356 ft | 7 kts | 163° |
| 2026-05-05 14:59 | 50.04325 | 8.56065 | 358 ft | 11 kts | 161° |
| 2026-05-05 14:59 | 50.04252 | 8.55996 | 359 ft | 17 kts | 250° |
| 2026-05-05 14:59 | 50.04203 | 8.55786 | 359 ft | 23 kts | 250° |
| 2026-05-05 14:59 | 50.04145 | 8.55545 | 353 ft | 24 kts | 249° |
| 2026-05-05 15:00 | 50.04086 | 8.55302 | 355 ft | 23 kts | 249° |
| 2026-05-05 15:00 | 50.04050 | 8.55146 | 360 ft | 23 kts | 250° |
| 2026-05-05 15:00 | 50.03976 | 8.54830 | 355 ft | 24 kts | 249° |
| 2026-05-05 15:00 | 50.03916 | 8.54583 | 353 ft | 25 kts | 250° |
| 2026-05-05 15:01 | 50.03847 | 8.54339 | 352 ft | 23 kts | 234° |
| 2026-05-05 15:01 | 50.03782 | 8.54142 | 351 ft | 21 kts | 249° |
| 2026-05-05 15:01 | 50.03730 | 8.53927 | 349 ft | 21 kts | 249° |
| 2026-05-05 15:01 | 50.03677 | 8.53706 | 347 ft | 22 kts | 251° |
| 2026-05-05 15:02 | 50.03620 | 8.53482 | 337 ft | 22 kts | 249° |
| 2026-05-05 15:02 | 50.03566 | 8.53257 | 336 ft | 23 kts | 249° |
| 2026-05-05 15:02 | 50.03510 | 8.53024 | 335 ft | 23 kts | 249° |
| 2026-05-05 15:02 | 50.03460 | 8.52829 | 334 ft | 15 kts | 246° |
| 2026-05-05 15:03 | 50.03425 | 8.52696 | 333 ft | 11 kts | 248° |
| 2026-05-05 15:03 | 50.03390 | 8.52608 | 334 ft | 9 kts | 217° |
| 2026-05-05 15:03 | 50.03312 | 8.52594 | 334 ft | 23 kts | 179° |
| 2026-05-05 15:03 | 50.02924 | 8.52596 | 334 ft | 87 kts | 180° |
| 2026-05-05 15:04 | 50.02132 | 8.52601 | 333 ft | 139 kts | 179° |
| 2026-05-05 15:04 | 50.01005 | 8.52616 | 351 ft | 182 kts | 179° |
| 2026-05-05 15:04 | 49.99797 | 8.52661 | 1179 ft | 163 kts | 180° |
| 2026-05-05 15:04 | 49.98675 | 8.52744 | 1887 ft | 165 kts | 180° |
| 2026-05-05 15:05 | 49.96323 | 8.52912 | 2897 ft | 177 kts | 180° |
| 2026-05-05 15:05 | 49.95063 | 8.52999 | 3366 ft | 183 kts | 179° |
| 2026-05-05 15:05 | 49.93791 | 8.53091 | 3963 ft | 183 kts | 179° |
| 2026-05-05 15:06 | 49.92491 | 8.53180 | 4421 ft | 192 kts | 179° |
| 2026-05-05 15:06 | 49.91098 | 8.53273 | 4680 ft | 210 kts | 179° |
| 2026-05-05 15:06 | 49.89566 | 8.53375 | 4899 ft | 228 kts | 179° |
| 2026-05-05 15:06 | 49.87965 | 8.53481 | 5443 ft | 232 kts | 179° |
| 2026-05-05 15:07 | 49.86351 | 8.53592 | 6113 ft | 233 kts | 179° |
| 2026-05-05 15:07 | 49.84750 | 8.53701 | 6703 ft | 234 kts | 179° |
| 2026-05-05 15:07 | 49.83116 | 8.53810 | 7293 ft | 236 kts | 178° |
| 2026-05-05 15:07 | 49.81467 | 8.53921 | 7886 ft | 238 kts | 178° |
| 2026-05-05 15:08 | 49.79804 | 8.54034 | 8496 ft | 240 kts | 178° |
| 2026-05-05 15:08 | 49.78130 | 8.54127 | 9115 ft | 242 kts | 182° |
| 2026-05-05 15:08 | 49.76399 | 8.53934 | 9376 ft | 260 kts | 185° |
| 2026-05-05 15:08 | 49.74531 | 8.53691 | 9677 ft | 275 kts | 185° |
| 2026-05-05 15:09 | 49.72600 | 8.53432 | 10081 ft | 286 kts | 185° |
| 2026-05-05 15:09 | 49.70552 | 8.53156 | 10203 ft | 305 kts | 185° |
| 2026-05-05 15:09 | 49.68404 | 8.52867 | 10327 ft | 323 kts | 185° |
| 2026-05-05 15:09 | 49.66112 | 8.52558 | 10454 ft | 339 kts | 185° |
| 2026-05-05 15:10 | 49.63722 | 8.52236 | 10778 ft | 348 kts | 184° |
| 2026-05-05 15:10 | 49.61297 | 8.51913 | 11273 ft | 351 kts | 184° |
| 2026-05-05 15:10 | 49.58853 | 8.51591 | 11793 ft | 354 kts | 184° |
| 2026-05-05 15:10 | 49.56395 | 8.51269 | 12317 ft | 356 kts | 184° |
| 2026-05-05 15:11 | 49.53913 | 8.50943 | 12831 ft | 359 kts | 184° |
| 2026-05-05 15:11 | 49.51418 | 8.50615 | 13338 ft | 361 kts | 184° |
| 2026-05-05 15:11 | 49.48935 | 8.50293 | 13811 ft | 364 kts | 184° |
| 2026-05-05 15:11 | 49.46403 | 8.49965 | 14251 ft | 366 kts | 184° |
| 2026-05-05 15:12 | 49.43856 | 8.49635 | 14696 ft | 369 kts | 184° |
| 2026-05-05 15:12 | 49.41291 | 8.49304 | 15136 ft | 372 kts | 185° |
| 2026-05-05 15:12 | 49.38705 | 8.48966 | 15607 ft | 374 kts | 185° |
| 2026-05-05 15:12 | 49.36102 | 8.48624 | 16088 ft | 376 kts | 185° |
| 2026-05-05 15:13 | 49.33486 | 8.48279 | 16544 ft | 379 kts | 185° |
| 2026-05-05 15:13 | 49.30852 | 8.47928 | 16961 ft | 381 kts | 185° |
| 2026-05-05 15:13 | 49.28205 | 8.47579 | 17369 ft | 383 kts | 185° |
| 2026-05-05 15:13 | 49.25580 | 8.47237 | 17775 ft | 385 kts | 185° |
| 2026-05-05 15:14 | 49.22897 | 8.46891 | 18172 ft | 388 kts | 185° |
| 2026-05-05 15:14 | 49.20201 | 8.46542 | 18496 ft | 390 kts | 185° |
| 2026-05-05 15:14 | 49.17487 | 8.46191 | 18825 ft | 393 kts | 185° |
| 2026-05-05 15:14 | 49.14757 | 8.45835 | 19169 ft | 395 kts | 185° |
| 2026-05-05 15:15 | 49.12016 | 8.45477 | 19528 ft | 396 kts | 185° |
| 2026-05-05 15:15 | 49.09262 | 8.45120 | 19890 ft | 398 kts | 185° |
| 2026-05-05 15:15 | 49.06502 | 8.44720 | 20243 ft | 399 kts | 189° |
| 2026-05-05 15:15 | 49.03780 | 8.43855 | 20609 ft | 401 kts | 193° |
| 2026-05-05 15:16 | 49.01052 | 8.42898 | 20974 ft | 403 kts | 193° |
| 2026-05-05 15:16 | 48.98352 | 8.41956 | 21334 ft | 405 kts | 193° |
| 2026-05-05 15:16 | 48.95594 | 8.40998 | 21699 ft | 408 kts | 193° |
| 2026-05-05 15:16 | 48.92817 | 8.40037 | 22105 ft | 410 kts | 193° |
| 2026-05-05 15:17 | 48.90023 | 8.39068 | 22498 ft | 413 kts | 193° |
| 2026-05-05 15:17 | 48.87219 | 8.38095 | 22839 ft | 414 kts | 193° |
| 2026-05-05 15:17 | 48.84403 | 8.37120 | 23168 ft | 416 kts | 193° |
| 2026-05-05 15:17 | 48.81573 | 8.36144 | 23489 ft | 418 kts | 193° |
| 2026-05-05 15:18 | 48.78732 | 8.35163 | 23768 ft | 419 kts | 193° |
| 2026-05-05 15:18 | 48.75923 | 8.34174 | 24030 ft | 422 kts | 193° |
| 2026-05-05 15:18 | 48.73060 | 8.33133 | 24284 ft | 424 kts | 193° |
| 2026-05-05 15:18 | 48.70191 | 8.32074 | 24557 ft | 425 kts | 193° |
| 2026-05-05 15:19 | 48.67310 | 8.31006 | 24855 ft | 427 kts | 193° |
| 2026-05-05 15:19 | 48.64420 | 8.29937 | 25137 ft | 428 kts | 193° |
| 2026-05-05 15:19 | 48.61523 | 8.28872 | 25430 ft | 429 kts | 193° |
| 2026-05-05 15:19 | 48.58612 | 8.27812 | 25717 ft | 431 kts | 193° |
| 2026-05-05 15:20 | 48.55694 | 8.26757 | 25988 ft | 432 kts | 193° |
| 2026-05-05 15:20 | 48.52803 | 8.25715 | 26266 ft | 433 kts | 193° |
| 2026-05-05 15:20 | 48.49868 | 8.24655 | 26547 ft | 434 kts | 193° |
| 2026-05-05 15:20 | 48.46922 | 8.23591 | 26810 ft | 436 kts | 193° |
| 2026-05-05 15:21 | 48.43971 | 8.22518 | 27087 ft | 437 kts | 193° |
| 2026-05-05 15:21 | 48.41009 | 8.21433 | 27336 ft | 439 kts | 193° |
| 2026-05-05 15:21 | 48.38039 | 8.20344 | 27557 ft | 440 kts | 193° |
| 2026-05-05 15:21 | 48.35063 | 8.19257 | 27806 ft | 441 kts | 193° |
| 2026-05-05 15:22 | 48.32082 | 8.18170 | 28028 ft | 442 kts | 193° |
| 2026-05-05 15:22 | 48.29092 | 8.17084 | 28245 ft | 442 kts | 193° |
| 2026-05-05 15:22 | 48.26106 | 8.15981 | 28529 ft | 442 kts | 195° |
| 2026-05-05 15:22 | 48.23260 | 8.14438 | 28796 ft | 442 kts | 204° |
| 2026-05-05 15:23 | 48.20499 | 8.12410 | 29072 ft | 441 kts | 205° |
| 2026-05-05 15:23 | 48.17753 | 8.10370 | 29356 ft | 440 kts | 205° |
| 2026-05-05 15:23 | 48.15009 | 8.08331 | 29647 ft | 439 kts | 205° |
| 2026-05-05 15:23 | 48.12275 | 8.06305 | 29943 ft | 438 kts | 205° |
| 2026-05-05 15:24 | 48.09547 | 8.04292 | 30203 ft | 437 kts | 205° |
| 2026-05-05 15:24 | 48.06823 | 8.02290 | 30441 ft | 436 kts | 205° |
| 2026-05-05 15:24 | 48.04105 | 8.00295 | 30670 ft | 435 kts | 205° |
| 2026-05-05 15:24 | 48.01426 | 7.98329 | 30894 ft | 435 kts | 205° |
| 2026-05-05 15:25 | 47.98710 | 7.96336 | 31122 ft | 434 kts | 205° |
| 2026-05-05 15:25 | 47.96003 | 7.94352 | 31348 ft | 433 kts | 205° |
| 2026-05-05 15:25 | 47.93300 | 7.92372 | 31585 ft | 432 kts | 205° |
| 2026-05-05 15:25 | 47.90604 | 7.90401 | 31851 ft | 430 kts | 205° |
| 2026-05-05 15:26 | 47.87922 | 7.88440 | 32090 ft | 429 kts | 205° |
| 2026-05-05 15:26 | 47.85244 | 7.86485 | 32322 ft | 428 kts | 205° |
| 2026-05-05 15:26 | 47.82574 | 7.84534 | 32529 ft | 428 kts | 206° |
| 2026-05-05 15:26 | 47.79903 | 7.82585 | 32749 ft | 427 kts | 206° |
| 2026-05-05 15:27 | 47.77235 | 7.80639 | 32842 ft | 426 kts | 206° |
| 2026-05-05 15:27 | 47.71969 | 7.76810 | 32863 ft | 422 kts | 206° |
| 2026-05-05 15:28 | 47.66693 | 7.72993 | 32859 ft | 421 kts | 206° |
| 2026-05-05 15:28 | 47.61420 | 7.69188 | 32863 ft | 421 kts | 206° |
| 2026-05-05 15:29 | 47.56146 | 7.65383 | 32866 ft | 421 kts | 206° |
| 2026-05-05 15:29 | 47.50909 | 7.61615 | 32880 ft | 421 kts | 206° |
| 2026-05-05 15:30 | 47.45644 | 7.57828 | 32882 ft | 421 kts | 206° |
| 2026-05-05 15:30 | 47.40382 | 7.54054 | 32883 ft | 420 kts | 206° |
| 2026-05-05 15:31 | 47.35122 | 7.50304 | 32883 ft | 420 kts | 206° |
| 2026-05-05 15:31 | 47.29868 | 7.46564 | 32929 ft | 418 kts | 206° |
| 2026-05-05 15:32 | 47.24654 | 7.42864 | 32921 ft | 419 kts | 206° |
| 2026-05-05 15:32 | 47.19413 | 7.39113 | 32909 ft | 419 kts | 210° |
| 2026-05-05 15:33 | 47.14831 | 7.33900 | 32916 ft | 418 kts | 227° |
| 2026-05-05 15:33 | 47.11200 | 7.27254 | 32919 ft | 416 kts | 231° |
| 2026-05-05 15:34 | 47.07612 | 7.20672 | 32901 ft | 416 kts | 230° |
| 2026-05-05 15:34 | 47.04003 | 7.14060 | 32906 ft | 415 kts | 230° |
| 2026-05-05 15:35 | 47.00400 | 7.07452 | 32904 ft | 415 kts | 230° |
| 2026-05-05 15:35 | 46.96800 | 7.00862 | 32911 ft | 414 kts | 230° |
| 2026-05-05 15:36 | 46.93222 | 6.94337 | 32924 ft | 413 kts | 230° |
| 2026-05-05 15:36 | 46.89630 | 6.87798 | 32916 ft | 412 kts | 230° |
| 2026-05-05 15:37 | 46.86026 | 6.81278 | 32913 ft | 413 kts | 230° |
| 2026-05-05 15:37 | 46.82410 | 6.74762 | 32912 ft | 413 kts | 230° |
| 2026-05-05 15:38 | 46.78817 | 6.68296 | 32915 ft | 413 kts | 230° |
| 2026-05-05 15:38 | 46.75204 | 6.61803 | 32916 ft | 411 kts | 230° |
| 2026-05-05 15:39 | 46.71606 | 6.55349 | 32925 ft | 409 kts | 230° |